気象予報士の航空気象 傘をわすれずに、帰宅時。

*All archives   *Admin

2010.05.23 (Sun)

傘をわすれずに、帰宅時。

RJTT 231100Z 09016KT 8000 -RA FEW008 SCT012 BKN050 17/15 Q1014 RMK 1ST008 3ST012 6SC050 A2995

RJTT 230840Z 2309/2412 09016KT 8000 -RA FEW010 SCT020 BKN050
BECMG 2313/2315 4000 -RA BR
TEMPO 2315/2318 3000 RA BR BKN007 BKN012
TEMPO 2318/2324 1500 RA BR BKN005 BKN010
BECMG 2400/2403 03004KT BKN008 BKN015
BECMG 2406/2409 16012KT 8000 NSW SCT010 BKN025


明日は、朝のうちに雨が上がり、日中はくもり。


夕方から晴れてくるようです。


けっこうまとまった雨が降るようで、通勤時はムシムシ。


雨降ってだるい。


帰りは傘を忘れないようにしないといけません。


 
ブログランキングに参加しています。
にほんブログ村 環境ブログ 天気・気象学へ
にほんブログ村
応援クリックをおねがします。


以下、アフィリエイトサイトです。



スポンサーサイト
20:36  |  気象・天気  |  TB(0)  |  CM(0)  |  EDIT  |  Top↑

コメントを投稿する


 管理者だけに表示  (非公開コメント投稿可能)

▲PageTop

この記事のトラックバックURL

→http://weathereucalyptus.blog115.fc2.com/tb.php/494-e342d6ef
この記事にトラックバックする(FC2ブログユーザー)

この記事へのトラックバック

▲PageTop

 | BLOGTOP |